createdAt,value
2022-08-24T00:00:21.001Z,68.23
2022-08-24T00:03:03.649Z,68.33
2022-08-24T00:05:32.435Z,68.53
2022-08-24T00:08:00.296Z,68.44
2022-08-24T00:10:28.077Z,68.58
2022-08-24T00:12:55.995Z,68.93
2022-08-24T00:15:24.892Z,68.71
2022-08-24T00:17:52.708Z,68.81
2022-08-24T00:20:21.651Z,68.73
2022-08-24T00:22:51.340Z,68.87
2022-08-24T00:25:20.561Z,68.86
2022-08-24T00:27:48.847Z,68.87
2022-08-24T00:30:18.634Z,68.96
2022-08-24T00:32:47.519Z,69.08
2022-08-24T00:35:18.633Z,68.94
2022-08-24T00:37:48.128Z,69.07
2022-08-24T00:40:21.036Z,69.18
2022-08-24T00:42:50.970Z,69.18
2022-08-24T00:45:20.087Z,69.14
2022-08-24T00:47:50.212Z,69.15
2022-08-24T00:50:36.762Z,69.11
2022-08-24T00:53:09.203Z,69.07
2022-08-24T00:55:44.373Z,68.71
2022-08-24T00:58:17.195Z,68.67
2022-08-24T01:00:49.892Z,68.72
2022-08-24T01:03:18.601Z,68.72
2022-08-24T01:05:47.227Z,68.73
2022-08-24T01:08:16.812Z,68.83
2022-08-24T01:10:47.468Z,68.76
2022-08-24T01:13:15.623Z,68.80
2022-08-24T01:15:45.851Z,68.97
2022-08-24T01:18:35.197Z,68.96
2022-08-24T01:21:16.485Z,69.04
2022-08-24T01:23:50.169Z,68.93
2022-08-24T01:26:21.117Z,68.95
2022-08-24T01:28:51.072Z,68.91
2022-08-24T01:31:21.093Z,68.87
2022-08-24T01:33:50.774Z,68.84
2022-08-24T01:36:28.804Z,69.00
2022-08-24T01:38:59.166Z,68.83
2022-08-24T01:41:29.263Z,68.96
2022-08-24T01:43:58.724Z,68.84
2022-08-24T01:46:29.102Z,68.80
2022-08-24T01:48:58.263Z,68.73
2022-08-24T01:51:31.350Z,68.91
2022-08-24T01:54:03.077Z,69.04
2022-08-24T01:56:31.583Z,69.00
2022-08-24T01:59:01.869Z,68.87
2022-08-24T02:01:32.333Z,68.85
2022-08-24T02:04:02.342Z,68.83
2022-08-24T02:06:30.517Z,68.79
2022-08-24T02:08:58.759Z,68.69
2022-08-24T02:11:27.217Z,68.69
2022-08-24T02:13:55.069Z,68.80
2022-08-24T02:16:24.755Z,68.55
2022-08-24T02:18:53.331Z,68.61
2022-08-24T02:21:21.388Z,68.57
2022-08-24T02:23:50.270Z,68.49
2022-08-24T02:26:18.956Z,68.44
2022-08-24T02:28:46.950Z,68.32
2022-08-24T02:31:15.930Z,68.45
2022-08-24T02:33:44.456Z,68.31
2022-08-24T02:36:26.316Z,68.33
2022-08-24T02:38:57.192Z,68.55
2022-08-24T02:41:25.737Z,68.27
2022-08-24T02:43:55.022Z,68.32
2022-08-24T02:46:25.417Z,68.08
2022-08-24T02:48:58.072Z,68.20
2022-08-24T02:51:40.509Z,68.40
2022-08-24T02:54:14.096Z,68.45
2022-08-24T02:56:43.075Z,68.46
2022-08-24T02:59:12.279Z,68.36
2022-08-24T03:01:40.981Z,68.32
2022-08-24T03:04:09.178Z,68.28
2022-08-24T03:06:37.510Z,68.20
2022-08-24T03:09:05.636Z,68.12
2022-08-24T03:11:33.506Z,68.13
2022-08-24T03:14:02.019Z,67.95
2022-08-24T03:16:30.501Z,67.93
2022-08-24T03:18:58.707Z,68.06
2022-08-24T03:21:27.793Z,68.12
2022-08-24T03:23:57.155Z,68.14
2022-08-24T03:26:25.283Z,68.27
2022-08-24T03:28:54.356Z,68.29
2022-08-24T03:31:22.245Z,68.51
2022-08-24T03:33:50.749Z,68.57
2022-08-24T03:36:18.570Z,68.52
2022-08-24T03:38:46.799Z,68.52
2022-08-24T03:41:14.730Z,68.59
2022-08-24T03:43:52.202Z,68.67
2022-08-24T03:46:25.185Z,68.67
2022-08-24T03:48:54.593Z,68.75
2022-08-24T03:51:25.444Z,68.63
2022-08-24T03:53:54.925Z,68.87
2022-08-24T03:56:24.708Z,68.79
2022-08-24T03:58:53.784Z,68.66
2022-08-24T04:01:22.634Z,68.75
2022-08-24T04:03:53.493Z,68.77
2022-08-24T04:06:22.718Z,68.57
2022-08-24T04:08:52.321Z,68.45
2022-08-24T04:11:23.365Z,68.52
2022-08-24T04:13:56.712Z,68.48
2022-08-24T04:16:26.101Z,68.63
2022-08-24T04:19:01.034Z,68.55
2022-08-24T04:21:31.010Z,68.41
2022-08-24T04:23:59.636Z,68.46
2022-08-24T04:26:44.131Z,68.46
2022-08-24T04:29:16.775Z,68.34
2022-08-24T04:31:49.251Z,68.09
2022-08-24T04:34:18.785Z,68.11
2022-08-24T04:36:46.839Z,67.93
2022-08-24T04:39:15.355Z,68.06
2022-08-24T04:42:03.257Z,68.00
2022-08-24T04:44:33.337Z,67.91
2022-08-24T04:47:02.054Z,67.72
2022-08-24T04:49:30.943Z,67.56
2022-08-24T04:51:59.307Z,67.62
2022-08-24T04:54:27.832Z,67.40
2022-08-24T04:57:06.602Z,67.42
2022-08-24T04:59:34.784Z,67.11
2022-08-24T05:02:02.864Z,67.01
2022-08-24T05:04:31.285Z,66.92
2022-08-24T05:06:59.676Z,66.92
2022-08-24T05:09:29.051Z,66.64
2022-08-24T05:11:57.531Z,66.43
2022-08-24T05:14:29.356Z,66.14
2022-08-24T05:16:57.509Z,66.11
2022-08-24T05:19:25.451Z,65.97
2022-08-24T05:21:53.791Z,65.73
2022-08-24T05:24:22.405Z,65.49
2022-08-24T05:26:51.615Z,65.44
2022-08-24T05:29:22.130Z,65.34
2022-08-24T05:31:51.654Z,65.40
2022-08-24T05:34:19.984Z,65.31
2022-08-24T05:36:52.580Z,65.31
2022-08-24T05:39:33.383Z,65.01
2022-08-24T05:42:07.928Z,64.66
2022-08-24T05:44:38.165Z,64.65
2022-08-24T05:47:06.325Z,64.55
2022-08-24T05:49:39.457Z,64.46
2022-08-24T05:52:10.392Z,64.33
2022-08-24T05:54:38.776Z,64.34
2022-08-24T05:57:07.063Z,64.40
2022-08-24T05:59:40.975Z,64.13
2022-08-24T06:02:18.471Z,64.01
2022-08-24T06:04:47.299Z,63.82
2022-08-24T06:07:15.874Z,63.50
2022-08-24T06:09:48.476Z,63.20
2022-08-24T06:12:17.349Z,62.76
2022-08-24T06:14:48.109Z,62.37
2022-08-24T06:17:19.842Z,61.96
2022-08-24T06:19:48.056Z,61.48
2022-08-24T06:22:15.837Z,60.93
2022-08-24T06:25:02.234Z,60.87
2022-08-24T06:27:30.792Z,60.32
2022-08-24T06:30:00.240Z,60.07
2022-08-24T06:32:46.409Z,59.91
2022-08-24T06:35:23.124Z,60.16
2022-08-24T06:37:51.145Z,60.57
2022-08-24T06:40:20.541Z,61.26
2022-08-24T06:42:48.651Z,61.35
2022-08-24T06:45:43.834Z,61.26
2022-08-24T06:48:13.349Z,61.06
2022-08-24T06:50:41.747Z,60.76
2022-08-24T06:53:14.650Z,60.53
2022-08-24T06:55:53.201Z,60.17
2022-08-24T06:58:22.583Z,60.22
2022-08-24T07:00:50.898Z,59.96
2022-08-24T07:03:21.254Z,59.70
2022-08-24T07:06:07.545Z,59.17
2022-08-24T07:08:38.968Z,59.25
2022-08-24T07:11:09.266Z,59.46
2022-08-24T07:13:37.309Z,59.35
2022-08-24T07:16:05.291Z,59.00
2022-08-24T07:18:33.990Z,58.79
2022-08-24T07:21:03.790Z,58.50
2022-08-24T07:23:50.553Z,58.13
2022-08-24T07:26:21.583Z,57.65
2022-08-24T07:28:53.846Z,57.65
2022-08-24T07:31:22.337Z,57.56
2022-08-24T07:33:56.329Z,56.91
2022-08-24T07:36:24.754Z,56.41
2022-08-24T07:38:57.487Z,56.17
2022-08-24T07:41:43.315Z,55.95
2022-08-24T07:44:15.999Z,54.88
2022-08-24T07:46:45.597Z,54.63
2022-08-24T07:49:31.331Z,53.81
2022-08-24T07:52:02.681Z,53.35
2022-08-24T07:54:31.204Z,53.22
2022-08-24T07:57:00.421Z,53.14
2022-08-24T07:59:29.306Z,52.48
2022-08-24T08:01:58.926Z,51.85
2022-08-24T08:04:27.875Z,51.88
2022-08-24T08:09:30.513Z,50.95
2022-08-24T08:11:58.434Z,50.71
2022-08-24T08:14:26.327Z,50.47
2022-08-24T08:16:55.205Z,50.00
2022-08-24T08:19:23.742Z,49.93
2022-08-24T08:22:11.669Z,49.50
2022-08-24T08:25:07.901Z,49.12
2022-08-24T08:27:36.390Z,48.76
2022-08-24T08:30:06.465Z,48.20
2022-08-24T08:32:35.511Z,48.01
2022-08-24T08:35:04.353Z,47.57
2022-08-24T08:37:33.811Z,47.74
2022-08-24T08:40:02.893Z,46.74
2022-08-24T08:42:38.527Z,46.50
2022-08-24T08:45:27.378Z,46.48
2022-08-24T08:48:44.263Z,46.13
2022-08-24T08:51:39.087Z,45.72
2022-08-24T08:54:19.437Z,45.99
2022-08-24T08:57:12.079Z,46.51
2022-08-24T09:00:10.638Z,46.77
2022-08-24T09:02:44.942Z,47.08
2022-08-24T09:05:28.833Z,46.91
2022-08-24T09:08:17.508Z,45.55
2022-08-24T09:10:56.732Z,45.50
2022-08-24T09:13:38.697Z,46.20
2022-08-24T09:16:14.254Z,45.84
2022-08-24T09:19:02.868Z,45.68
2022-08-24T09:21:46.642Z,45.55
2022-08-24T09:24:24.911Z,45.02
2022-08-24T09:26:58.698Z,44.57
2022-08-24T09:29:37.857Z,44.50
2022-08-24T09:32:11.480Z,44.32
2022-08-24T09:34:47.459Z,44.50
2022-08-24T09:37:24.690Z,44.34
2022-08-24T09:40:00.451Z,44.01
2022-08-24T09:42:49.431Z,43.86
2022-08-24T09:45:30.820Z,44.63
2022-08-24T09:48:05.755Z,44.98
2022-08-24T09:50:33.929Z,45.16
2022-08-24T09:53:14.207Z,45.49
2022-08-24T09:55:54.133Z,45.99
2022-08-24T09:58:31.210Z,45.91
2022-08-24T10:01:08.974Z,46.40
2022-08-24T10:03:49.630Z,46.64
2022-08-24T10:06:38.459Z,47.00
2022-08-24T10:09:24.910Z,46.69
2022-08-24T10:11:59.412Z,46.86
2022-08-24T10:14:47.812Z,46.77
2022-08-24T10:17:20.328Z,47.14
2022-08-24T10:20:01.935Z,47.13
2022-08-24T10:22:30.477Z,47.93
2022-08-24T10:25:17.435Z,48.03
2022-08-24T10:27:45.982Z,48.02
2022-08-24T10:30:26.740Z,47.91
2022-08-24T10:33:07.334Z,47.38
2022-08-24T10:35:55.406Z,46.70
2022-08-24T10:38:49.366Z,46.04
2022-08-24T10:41:18.178Z,46.10
2022-08-24T10:43:52.795Z,45.26
2022-08-24T10:46:20.781Z,45.26
2022-08-24T10:48:52.270Z,44.40
2022-08-24T10:51:21.513Z,44.19
2022-08-24T10:53:54.211Z,44.59
2022-08-24T10:56:29.835Z,44.59
2022-08-24T10:59:12.697Z,44.36
2022-08-24T11:01:40.993Z,44.28
2022-08-24T11:04:14.199Z,43.91
2022-08-24T11:06:43.711Z,44.08
2022-08-24T11:09:19.928Z,44.12
2022-08-24T11:11:49.264Z,43.53
2022-08-24T11:14:17.163Z,42.81
2022-08-24T11:16:46.939Z,42.54
2022-08-24T11:19:27.687Z,42.11
2022-08-24T11:21:57.138Z,41.80
2022-08-24T11:24:30.447Z,41.22
2022-08-24T11:27:16.660Z,41.25
2022-08-24T11:29:51.558Z,40.95
2022-08-24T11:32:31.378Z,40.99
2022-08-24T11:35:04.634Z,41.14
2022-08-24T11:37:37.575Z,41.09
2022-08-24T11:40:07.038Z,40.32
2022-08-24T11:42:38.268Z,40.69
2022-08-24T11:45:24.912Z,40.53
2022-08-24T11:48:02.039Z,40.42
2022-08-24T11:50:41.144Z,39.99
2022-08-24T11:53:20.126Z,39.73
2022-08-24T11:56:00.216Z,39.97
2022-08-24T11:58:32.223Z,39.74
2022-08-24T12:01:12.317Z,39.83
2022-08-24T12:03:40.239Z,38.36
2022-08-24T12:06:27.569Z,38.35
2022-08-24T12:09:19.384Z,38.61
2022-08-24T12:11:47.509Z,38.17
2022-08-24T12:14:18.381Z,37.90
2022-08-24T12:16:46.386Z,37.51
2022-08-24T12:19:14.434Z,37.80
2022-08-24T12:21:49.416Z,37.39
2022-08-24T12:24:26.729Z,37.13
2022-08-24T12:26:57.510Z,37.31
2022-08-24T12:29:28.872Z,37.20
2022-08-24T12:31:57.526Z,37.25
2022-08-24T12:34:26.180Z,37.81
2022-08-24T12:36:53.940Z,37.76
2022-08-24T12:39:25.535Z,37.30
2022-08-24T12:41:54.696Z,37.86
2022-08-24T12:44:26.737Z,37.63
2022-08-24T12:46:56.894Z,37.38
2022-08-24T12:49:31.156Z,37.40
2022-08-24T12:52:26.279Z,37.49
2022-08-24T12:54:54.523Z,37.62
2022-08-24T12:57:51.765Z,37.76
2022-08-24T13:00:27.743Z,37.62
2022-08-24T13:03:00.143Z,37.71
2022-08-24T13:05:38.853Z,37.74
2022-08-24T13:08:12.496Z,37.45
2022-08-24T13:10:44.405Z,37.30
2022-08-24T13:13:15.001Z,36.96
2022-08-24T13:15:45.942Z,36.99
2022-08-24T13:18:13.613Z,37.23
2022-08-24T13:20:41.637Z,36.48
2022-08-24T13:23:11.896Z,36.10
2022-08-24T13:25:51.862Z,36.14
2022-08-24T13:28:25.527Z,35.87
2022-08-24T13:30:54.232Z,36.17
2022-08-24T13:33:30.251Z,35.69
2022-08-24T13:36:02.475Z,36.09
2022-08-24T13:38:30.278Z,35.44
2022-08-24T13:41:05.408Z,35.97
2022-08-24T13:43:42.264Z,35.77
2022-08-24T13:46:25.191Z,35.61
2022-08-24T13:48:55.549Z,35.64
2022-08-24T13:51:36.300Z,35.39
2022-08-24T13:54:19.947Z,35.38
2022-08-24T13:56:57.657Z,35.21
2022-08-24T13:59:44.870Z,35.65
2022-08-24T14:02:16.092Z,36.03
2022-08-24T14:04:47.738Z,36.13
2022-08-24T14:07:21.650Z,35.67
2022-08-24T14:10:08.433Z,35.65
2022-08-24T14:12:44.430Z,35.75
2022-08-24T14:15:41.639Z,36.23
2022-08-24T14:18:12.968Z,36.15
2022-08-24T14:20:48.800Z,36.29
2022-08-24T14:23:16.619Z,35.69
2022-08-24T14:25:45.207Z,36.02
2022-08-24T14:28:34.263Z,36.33
2022-08-24T14:31:17.266Z,36.52
2022-08-24T14:33:56.238Z,36.63
2022-08-24T14:36:46.972Z,36.82
2022-08-24T14:39:28.002Z,37.24
2022-08-24T14:42:09.101Z,37.28
2022-08-24T14:44:39.980Z,37.66
2022-08-24T14:47:14.669Z,37.75
2022-08-24T14:49:54.296Z,38.48
2022-08-24T14:52:31.915Z,38.68
2022-08-24T14:55:22.794Z,39.20
2022-08-24T14:58:01.728Z,39.89
2022-08-24T15:00:48.526Z,39.65
2022-08-24T15:03:24.798Z,39.82
2022-08-24T15:06:15.942Z,39.80
2022-08-24T15:08:44.352Z,39.73
2022-08-24T15:11:15.881Z,40.05
2022-08-24T15:13:50.173Z,40.15
2022-08-24T15:16:36.577Z,40.20
2022-08-24T15:19:27.462Z,40.37
2022-08-24T15:22:00.237Z,40.84
2022-08-24T15:24:31.445Z,41.61
2022-08-24T15:27:00.759Z,41.92
2022-08-24T15:29:30.951Z,42.21
2022-08-24T15:32:04.690Z,42.57
2022-08-24T15:34:43.446Z,43.03
2022-08-24T15:37:12.837Z,43.48
2022-08-24T15:39:40.939Z,43.71
2022-08-24T15:42:13.438Z,43.94
2022-08-24T15:44:44.627Z,44.38
2022-08-24T15:47:18.945Z,44.34
2022-08-24T15:49:50.307Z,44.53
2022-08-24T15:52:27.694Z,44.68
2022-08-24T15:54:58.054Z,44.85
2022-08-24T15:57:26.107Z,44.97
2022-08-24T15:59:55.858Z,45.27
2022-08-24T16:02:26.844Z,45.58
2022-08-24T16:05:19.092Z,45.60
2022-08-24T16:08:05.731Z,45.63
2022-08-24T16:10:39.274Z,45.67
2022-08-24T16:13:07.475Z,46.07
2022-08-24T16:15:44.484Z,46.14
2022-08-24T16:18:13.108Z,46.11
2022-08-24T16:20:41.520Z,46.36
2022-08-24T16:23:21.452Z,46.44
2022-08-24T16:25:51.320Z,46.77
2022-08-24T16:28:22.476Z,46.85
2022-08-24T16:30:53.199Z,46.86
2022-08-24T16:33:30.136Z,46.87
2022-08-24T16:35:59.396Z,47.19
2022-08-24T16:38:28.144Z,47.22
2022-08-24T16:40:59.880Z,47.27
2022-08-24T16:43:28.836Z,47.23
2022-08-24T16:45:57.597Z,47.26
2022-08-24T16:48:25.326Z,47.38
2022-08-24T16:50:53.609Z,47.50
2022-08-24T16:53:21.420Z,47.57
2022-08-24T16:55:49.382Z,47.58
2022-08-24T16:58:17.450Z,47.67
2022-08-24T17:00:46.331Z,47.85
2022-08-24T17:03:15.243Z,47.94
2022-08-24T17:05:44.101Z,48.08
2022-08-24T17:08:13.089Z,48.18
2022-08-24T17:10:40.964Z,48.35
2022-08-24T17:13:08.987Z,48.50
2022-08-24T17:15:37.305Z,48.63
2022-08-24T17:18:07.631Z,48.71
2022-08-24T17:20:35.612Z,49.09
2022-08-24T17:23:03.667Z,49.54
2022-08-24T17:25:32.133Z,49.41
2022-08-24T17:28:01.675Z,49.68
2022-08-24T17:30:30.940Z,49.52
2022-08-24T17:33:00.126Z,49.61
2022-08-24T17:35:28.920Z,49.85
2022-08-24T17:37:57.870Z,50.12
2022-08-24T17:40:26.496Z,50.40
2022-08-24T17:42:54.369Z,50.51
2022-08-24T17:45:23.204Z,50.87
2022-08-24T17:47:52.846Z,51.02
2022-08-24T17:50:21.681Z,51.21
2022-08-24T17:52:50.406Z,51.28
2022-08-24T17:55:27.678Z,51.67
2022-08-24T17:57:55.853Z,51.40
2022-08-24T18:00:23.986Z,51.76
2022-08-24T18:02:52.177Z,52.16
2022-08-24T18:05:20.121Z,52.22
2022-08-24T18:07:53.441Z,52.52
2022-08-24T18:10:29.268Z,52.94
2022-08-24T18:12:58.080Z,52.87
2022-08-24T18:15:32.614Z,53.18
2022-08-24T18:18:06.501Z,53.21
2022-08-24T18:20:40.833Z,53.46
2022-08-24T18:23:11.952Z,53.49
2022-08-24T18:25:44.399Z,53.57
2022-08-24T18:28:14.260Z,53.57
2022-08-24T18:30:44.083Z,53.81
2022-08-24T18:33:12.232Z,54.09
2022-08-24T18:35:40.179Z,54.45
2022-08-24T18:38:08.578Z,54.69
2022-08-24T18:40:36.752Z,54.73
2022-08-24T18:43:05.427Z,54.88
2022-08-24T18:45:34.383Z,54.94
2022-08-24T18:48:02.635Z,55.15
2022-08-24T18:50:31.732Z,55.54
2022-08-24T18:52:59.858Z,55.62
2022-08-24T18:55:28.228Z,55.80
2022-08-24T18:57:56.153Z,56.03
2022-08-24T19:00:24.325Z,56.28
2022-08-24T19:02:52.418Z,56.46
2022-08-24T19:05:22.302Z,56.69
2022-08-24T19:07:51.926Z,56.90
2022-08-24T19:10:22.479Z,56.39
2022-08-24T19:13:00.189Z,56.45
2022-08-24T19:15:39.128Z,56.52
2022-08-24T19:18:11.260Z,56.73
2022-08-24T19:20:44.679Z,56.97
2022-08-24T19:23:20.604Z,56.77
2022-08-24T19:25:49.182Z,56.82
2022-08-24T19:28:17.475Z,57.14
2022-08-24T19:30:47.277Z,57.18
2022-08-24T19:33:19.441Z,57.05
2022-08-24T19:35:47.234Z,57.01
2022-08-24T19:38:15.235Z,56.90
2022-08-24T19:40:47.650Z,57.09
2022-08-24T19:43:16.488Z,57.38
2022-08-24T19:46:03.370Z,57.32
2022-08-24T19:48:32.432Z,57.44
2022-08-24T19:51:02.698Z,57.84
2022-08-24T19:53:31.836Z,58.13
2022-08-24T19:56:00.714Z,58.56
2022-08-24T19:58:29.904Z,58.44
2022-08-24T20:01:02.236Z,58.55
2022-08-24T20:03:30.519Z,58.75
2022-08-24T20:05:58.298Z,58.79
2022-08-24T20:08:26.400Z,58.87
2022-08-24T20:10:58.682Z,58.80
2022-08-24T20:13:27.814Z,59.09
2022-08-24T20:15:56.647Z,59.18
2022-08-24T20:18:26.785Z,59.32
2022-08-24T20:20:54.618Z,59.29
2022-08-24T20:23:22.789Z,59.47
2022-08-24T20:25:54.720Z,59.55
2022-08-24T20:28:29.065Z,59.54
2022-08-24T20:30:58.434Z,59.47
2022-08-24T20:33:28.133Z,59.32
2022-08-24T20:35:56.379Z,59.29
2022-08-24T20:38:24.806Z,59.47
2022-08-24T20:40:52.673Z,59.35
2022-08-24T20:43:20.967Z,59.29
2022-08-24T20:45:52.937Z,59.39
2022-08-24T20:48:28.506Z,59.46
2022-08-24T20:50:56.349Z,59.55
2022-08-24T20:53:25.589Z,59.60
2022-08-24T20:55:55.642Z,59.67
2022-08-24T20:58:24.106Z,59.69
2022-08-24T21:00:52.475Z,59.56
2022-08-24T21:03:21.708Z,59.81
2022-08-24T21:05:52.644Z,59.75
2022-08-24T21:08:21.260Z,59.78
2022-08-24T21:10:49.611Z,59.89
2022-08-24T21:13:17.600Z,59.90
2022-08-24T21:15:45.905Z,60.00
2022-08-24T21:18:14.444Z,59.99
2022-08-24T21:20:46.095Z,60.01
2022-08-24T21:23:28.835Z,60.19
2022-08-24T21:25:57.483Z,60.18
2022-08-24T21:28:25.354Z,60.01
2022-08-24T21:30:53.626Z,60.18
2022-08-24T21:33:39.783Z,60.16
2022-08-24T21:36:09.490Z,60.13
2022-08-24T21:38:38.210Z,60.06
2022-08-24T21:41:06.807Z,60.26
2022-08-24T21:43:35.024Z,60.37
2022-08-24T21:46:02.785Z,60.69
2022-08-24T21:48:30.975Z,60.60
2022-08-24T21:50:59.048Z,60.68
2022-08-24T21:53:28.412Z,60.51
2022-08-24T21:55:57.330Z,60.47
2022-08-24T21:58:26.273Z,60.74
2022-08-24T22:00:54.365Z,60.74
2022-08-24T22:03:40.151Z,60.88
2022-08-24T22:06:09.324Z,60.94
2022-08-24T22:08:38.080Z,60.92
2022-08-24T22:11:06.252Z,60.95
2022-08-24T22:13:34.742Z,61.06
2022-08-24T22:16:03.401Z,61.13
2022-08-24T22:18:31.348Z,61.07
2022-08-24T22:20:59.585Z,61.12
2022-08-24T22:23:27.971Z,61.20
2022-08-24T22:25:56.453Z,61.19
2022-08-24T22:28:24.413Z,61.18
2022-08-24T22:30:52.305Z,61.55
2022-08-24T22:33:20.793Z,61.57
2022-08-24T22:35:52.121Z,61.53
2022-08-24T22:38:21.013Z,61.80
2022-08-24T22:40:54.915Z,61.97
2022-08-24T22:43:25.123Z,62.13
2022-08-24T22:45:53.049Z,62.39
2022-08-24T22:48:20.984Z,62.45
2022-08-24T22:50:48.966Z,62.44
2022-08-24T22:53:16.930Z,62.75
2022-08-24T22:55:45.040Z,62.88
2022-08-24T22:58:12.928Z,62.78
2022-08-24T23:00:41.196Z,62.95
2022-08-24T23:03:09.658Z,63.23
2022-08-24T23:05:37.737Z,63.24
2022-08-24T23:08:06.286Z,63.27
2022-08-24T23:10:34.068Z,63.23
2022-08-24T23:13:02.550Z,63.25
2022-08-24T23:15:30.483Z,63.25
2022-08-24T23:17:58.497Z,63.15
2022-08-24T23:20:26.303Z,63.33
2022-08-24T23:22:54.124Z,63.35
2022-08-24T23:25:22.247Z,63.41
2022-08-24T23:27:50.293Z,63.55
2022-08-24T23:30:18.754Z,63.63
2022-08-24T23:32:47.692Z,63.53
2022-08-24T23:35:16.423Z,63.55
2022-08-24T23:37:44.718Z,63.30
2022-08-24T23:40:13.211Z,63.70
2022-08-24T23:42:41.559Z,63.92
2022-08-24T23:45:11.740Z,63.98
2022-08-24T23:47:41.320Z,63.97
2022-08-24T23:50:11.059Z,64.30
2022-08-24T23:52:39.492Z,64.31
2022-08-24T23:55:21.146Z,64.21
2022-08-24T23:57:51.510Z,64.30
